Time;durP1;ratioP1;P1;durP2;ratioP2;P2;SDS_P1;SDS_P2;PMS_P1;PMS_P2;Temp;Humidity;BMP_temperature;BMP_pressure;BME280_temperature;BME280_humidity;BME280_pressure;Samples;Min_cycle;Max_cycle;Signal;HPM_P1;HPM_P2
2021/01/29 00:00:24;;;;;;;62.33;20.50;;;5.60;99.90;;;;;;4997949;28;20462;-89
2021/01/29 00:02:52;;;;;;;88.95;22.67;;;5.60;99.90;;;;;;5021844;28;20013;-89
2021/01/29 00:05:20;;;;;;;73.45;21.00;;;5.60;99.90;;;;;;5017757;28;20061;-89
2021/01/29 00:07:48;;;;;;;77.20;20.65;;;5.70;99.90;;;;;;5024779;28;20022;-89
2021/01/29 00:10:14;;;;;;;63.10;20.30;;;5.60;99.90;;;;;;4997764;28;20018;-89
2021/01/29 00:12:40;;;;;;;76.80;22.48;;;5.70;99.90;;;;;;5014624;28;20083;-89
2021/01/29 00:15:10;;;;;;;75.70;21.08;;;5.60;99.90;;;;;;4980843;28;20034;-89
2021/01/29 00:17:36;;;;;;;71.93;21.45;;;5.70;99.90;;;;;;5017507;28;20452;-88
2021/01/29 00:20:04;;;;;;;78.47;21.77;;;5.70;99.90;;;;;;5005461;28;20029;-89
2021/01/29 00:22:30;;;;;;;76.18;21.52;;;5.70;99.90;;;;;;5009193;28;20459;-89
2021/01/29 00:24:56;;;;;;;100.15;23.58;;;5.70;99.90;;;;;;4998970;28;20176;-89
2021/01/29 00:27:21;;;;;;;73.60;23.02;;;5.70;99.90;;;;;;5021253;28;20044;-90
2021/01/29 00:29:47;;;;;;;86.07;23.80;;;5.60;99.90;;;;;;4998091;28;20021;-89
2021/01/29 00:32:12;;;;;;;81.05;23.63;;;5.70;99.90;;;;;;5000180;28;20040;-89
2021/01/29 00:34:38;;;;;;;82.90;23.23;;;5.70;99.90;;;;;;5031837;28;20030;-89
2021/01/29 00:37:04;;;;;;;130.10;27.88;;;5.70;99.90;;;;;;4995129;28;20038;-89
2021/01/29 00:39:29;;;;;;;82.03;24.63;;;5.70;99.90;;;;;;5024015;28;20108;-88
2021/01/29 00:41:55;;;;;;;109.57;26.52;;;5.70;99.90;;;;;;5018519;28;20125;-89
2021/01/29 00:44:23;;;;;;;98.53;26.58;;;5.70;99.90;;;;;;5014710;28;20030;-87
2021/01/29 00:46:49;;;;;;;112.43;32.00;;;5.70;99.90;;;;;;5014542;28;20091;-87
2021/01/29 00:49:14;;;;;;;104.47;28.40;;;5.70;99.90;;;;;;4994965;28;20076;-87
2021/01/29 00:51:40;;;;;;;104.65;27.50;;;5.70;99.90;;;;;;5012654;28;20056;-87
2021/01/29 00:54:06;;;;;;;100.85;27.00;;;5.70;99.90;;;;;;4998692;28;20299;-87
2021/01/29 00:56:31;;;;;;;93.93;25.67;;;5.70;99.90;;;;;;5002007;28;20071;-88
2021/01/29 00:58:57;;;;;;;122.50;26.30;;;5.70;99.90;;;;;;5015734;28;20033;-89
2021/01/29 01:01:22;;;;;;;132.32;27.60;;;5.70;99.90;;;;;;5010788;28;20401;-90
2021/01/29 01:03:48;;;;;;;116.75;26.70;;;5.70;99.90;;;;;;4981011;28;20024;-89
2021/01/29 01:06:14;;;;;;;83.85;24.85;;;5.70;99.90;;;;;;5025720;28;20075;-87
2021/01/29 01:08:39;;;;;;;122.38;29.80;;;5.70;99.90;;;;;;5015303;28;20037;-90
2021/01/29 01:11:05;;;;;;;99.07;25.48;;;5.80;99.90;;;;;;5002991;28;20049;-87
2021/01/29 01:13:31;;;;;;;116.55;28.90;;;5.70;99.90;;;;;;5021856;28;20030;-87
2021/01/29 01:15:56;;;;;;;98.15;28.75;;;5.70;99.90;;;;;;5029594;28;20078;-86
2021/01/29 01:18:22;;;;;;;150.85;32.03;;;5.70;99.90;;;;;;5019380;28;20080;-87
2021/01/29 01:20:47;;;;;;;123.32;29.63;;;5.70;99.90;;;;;;5017225;28;20022;-88
2021/01/29 01:23:13;;;;;;;113.53;28.83;;;5.70;99.90;;;;;;5024277;28;20073;-88
2021/01/29 01:25:39;;;;;;;151.75;32.78;;;5.80;99.90;;;;;;5010366;28;20057;-88
2021/01/29 01:28:05;;;;;;;139.10;33.88;;;5.70;99.90;;;;;;5012318;28;20029;-88
2021/01/29 01:30:40;;;;;;;193.60;33.97;;;5.80;99.90;;;;;;5002121;28;20122;-88
2021/01/29 01:33:07;;;;;;;175.40;34.83;;;5.70;99.90;;;;;;5025981;28;20032;-88
2021/01/29 01:35:33;;;;;;;127.72;31.77;;;5.80;99.90;;;;;;5011512;28;20132;-88
2021/01/29 01:38:00;;;;;;;150.85;31.67;;;5.80;99.90;;;;;;5030883;28;20454;-88
2021/01/29 01:40:32;;;;;;;114.43;31.70;;;5.80;99.90;;;;;;5027482;28;20470;-88
2021/01/29 01:42:58;;;;;;;125.95;31.40;;;5.80;99.90;;;;;;5030802;28;20051;-88
2021/01/29 01:45:26;;;;;;;135.07;33.67;;;5.80;99.90;;;;;;5011278;28;20026;-89
2021/01/29 01:48:00;;;;;;;157.10;32.55;;;5.80;99.90;;;;;;5025191;28;20022;-88
2021/01/29 01:50:35;;;;;;;225.52;38.90;;;5.80;99.90;;;;;;5020089;28;20481;-88
2021/01/29 01:53:15;;;;;;;121.63;32.78;;;5.80;99.90;;;;;;5024922;28;20021;-88
2021/01/29 01:55:43;;;;;;;102.70;27.35;;;5.80;99.90;;;;;;5018495;28;20504;-88
2021/01/29 01:58:09;;;;;;;115.65;29.83;;;5.90;99.90;;;;;;5028178;28;20030;-88
2021/01/29 02:00:35;;;;;;;105.13;28.33;;;5.80;99.90;;;;;;5035245;28;20037;-88
2021/01/29 02:03:12;;;;;;;111.10;31.15;;;5.80;99.90;;;;;;5042232;28;20478;-89
2021/01/29 02:05:40;;;;;;;165.48;33.03;;;5.90;99.90;;;;;;5024144;28;20026;-88
2021/01/29 02:08:10;;;;;;;123.82;30.90;;;5.90;99.90;;;;;;5025989;28;20033;-88
2021/01/29 02:10:36;;;;;;;139.77;31.38;;;5.90;99.90;;;;;;5021750;28;20024;-88
2021/01/29 02:13:04;;;;;;;218.98;36.95;;;5.90;99.90;;;;;;5018309;28;20079;-88
2021/01/29 02:15:40;;;;;;;129.82;32.75;;;5.90;99.90;;;;;;5028929;28;20030;-89
2021/01/29 02:18:27;;;;;;;130.52;31.00;;;5.90;99.90;;;;;;5023986;28;20025;-88
2021/01/29 02:21:29;;;;;;;138.98;32.08;;;5.90;99.90;;;;;;5034534;28;20021;-87
2021/01/29 02:24:07;;;;;;;172.43;34.17;;;5.90;99.90;;;;;;5034106;28;20072;-88
2021/01/29 02:26:57;;;;;;;160.65;31.15;;;5.90;99.90;;;;;;5020975;28;20082;-88
2021/01/29 02:29:50;;;;;;;131.10;28.45;;;6.00;99.90;;;;;;5033947;28;20049;-88
2021/01/29 02:32:50;;;;;;;94.63;27.33;;;6.00;99.90;;;;;;5013735;28;20087;-87
2021/01/29 02:35:34;;;;;;;100.32;26.58;;;6.00;99.90;;;;;;5034270;28;20036;-88
2021/01/29 02:38:37;;;;;;;106.90;27.08;;;6.00;99.90;;;;;;5027130;28;20029;-87
2021/01/29 02:41:25;;;;;;;143.55;27.48;;;6.00;99.90;;;;;;5033708;28;20041;-88
2021/01/29 02:44:19;;;;;;;92.95;25.13;;;6.00;99.90;;;;;;5021919;28;20060;-86
2021/01/29 02:46:53;;;;;;;94.38;24.05;;;6.00;99.90;;;;;;5013137;28;20036;-88
2021/01/29 02:49:26;;;;;;;96.30;24.52;;;6.10;99.90;;;;;;5022316;28;20025;-87
2021/01/29 02:52:14;;;;;;;114.38;26.17;;;6.10;99.90;;;;;;5025036;28;20029;-87
2021/01/29 02:54:49;;;;;;;111.72;25.83;;;6.10;99.90;;;;;;5020376;28;20066;-88
2021/01/29 02:57:23;;;;;;;109.47;22.67;;;6.10;99.90;;;;;;5027510;28;20490;-88
2021/01/29 03:00:04;;;;;;;96.20;22.67;;;6.10;99.90;;;;;;5033810;28;20356;-88
2021/01/29 03:02:56;;;;;;;77.97;23.05;;;6.20;99.90;;;;;;5008254;28;20108;-88
2021/01/29 03:05:26;;;;;;;170.88;28.58;;;6.20;99.90;;;;;;5031755;28;20046;-87
2021/01/29 03:07:58;;;;;;;88.95;25.77;;;6.10;99.90;;;;;;5033638;28;20025;-88
2021/01/29 03:11:05;;;;;;;65.97;21.23;;;6.20;99.90;;;;;;5018926;28;20021;-88
2021/01/29 03:13:40;;;;;;;90.78;20.13;;;6.20;99.90;;;;;;5033331;28;20493;-87
2021/01/29 03:16:16;;;;;;;92.50;22.88;;;6.20;99.90;;;;;;5021480;28;20041;-88
2021/01/29 03:18:50;;;;;;;92.60;22.55;;;6.20;99.90;;;;;;5033004;28;20033;-87
2021/01/29 03:21:20;;;;;;;83.63;21.92;;;6.20;99.90;;;;;;5037525;28;20070;-87
2021/01/29 03:23:51;;;;;;;74.43;19.55;;;6.30;99.90;;;;;;5017673;28;20025;-87
2021/01/29 03:26:24;;;;;;;97.38;24.35;;;6.30;99.90;;;;;;5018196;28;20029;-87
2021/01/29 03:29:00;;;;;;;77.63;21.45;;;6.30;99.90;;;;;;5027451;28;20051;-87
2021/01/29 03:31:28;;;;;;;58.53;20.50;;;6.30;99.90;;;;;;5033120;28;20060;-87
2021/01/29 03:34:37;;;;;;;116.93;24.63;;;6.40;99.90;;;;;;4997853;28;20362;-87
2021/01/29 03:37:10;;;;;;;69.80;20.83;;;6.40;99.90;;;;;;5009904;28;20052;-88
2021/01/29 03:39:38;;;;;;;85.93;23.23;;;6.40;99.90;;;;;;5023797;28;20128;-88
2021/01/29 03:42:22;;;;;;;95.30;22.27;;;6.40;99.90;;;;;;5021381;28;20492;-88
2021/01/29 03:45:01;;;;;;;60.92;19.35;;;6.40;99.90;;;;;;5016427;28;20091;-87
2021/01/29 03:48:01;;;;;;;92.50;21.35;;;6.40;99.90;;;;;;5024414;28;20059;-87
2021/01/29 03:50:48;;;;;;;67.55;19.83;;;6.40;99.90;;;;;;5003896;28;20064;-88
2021/01/29 03:53:26;;;;;;;72.80;18.33;;;6.50;99.90;;;;;;5022572;28;20072;-88
2021/01/29 03:56:21;;;;;;;52.75;17.83;;;6.50;99.90;;;;;;5018819;28;20142;-87
2021/01/29 03:59:08;;;;;;;60.60;17.80;;;6.50;99.90;;;;;;5022280;28;20033;-88
2021/01/29 04:01:36;;;;;;;84.65;20.27;;;6.60;99.90;;;;;;5027137;28;20017;-87
2021/01/29 04:04:06;;;;;;;58.65;18.77;;;6.60;99.90;;;;;;5032429;28;20108;-87
2021/01/29 04:06:38;;;;;;;66.40;17.40;;;6.60;99.90;;;;;;5022652;28;20104;-87
2021/01/29 04:09:22;;;;;;;57.13;17.23;;;6.60;99.90;;;;;;5017596;28;20079;-87
2021/01/29 04:11:53;;;;;;;44.50;15.38;;;6.60;99.90;;;;;;5014573;28;20032;-88
2021/01/29 04:14:39;;;;;;;;;;;6.60;99.90;;;;;;5006717;28;20037;-87
2021/01/29 04:17:14;;;;;;;56.30;14.57;;;6.70;99.90;;;;;;5017534;28;19924;-88
2021/01/29 04:19:43;;;;;;;37.92;14.05;;;6.70;99.90;;;;;;5028866;28;20113;-87
2021/01/29 04:22:18;;;;;;;68.85;17.40;;;6.70;99.90;;;;;;5032532;28;20048;-87
2021/01/29 04:24:53;;;;;;;60.15;17.13;;;6.70;99.90;;;;;;5032092;28;20132;-87
2021/01/29 04:27:24;;;;;;;37.35;13.48;;;6.70;99.90;;;;;;5020265;28;20444;-87
2021/01/29 04:29:59;;;;;;;31.17;12.18;;;6.80;99.90;;;;;;5030101;28;20026;-88
2021/01/29 04:32:29;;;;;;;39.83;12.00;;;6.80;99.90;;;;;;5026840;28;20030;-87
2021/01/29 04:34:57;;;;;;;27.80;10.87;;;6.80;99.90;;;;;;5024115;28;20029;-87
2021/01/29 04:37:36;;;;;;;30.83;9.65;;;6.80;99.90;;;;;;5016746;28;20161;-88
2021/01/29 04:40:34;;;;;;;35.65;10.75;;;6.90;99.90;;;;;;5022152;28;20021;-87
2021/01/29 04:43:29;;;;;;;44.67;13.90;;;6.90;99.90;;;;;;5020047;28;20117;-88
2021/01/29 04:46:26;;;;;;;31.98;11.88;;;6.90;99.90;;;;;;5013174;28;20029;-87
2021/01/29 04:49:07;;;;;;;48.42;16.38;;;6.90;99.90;;;;;;4997253;28;20477;-88
2021/01/29 04:51:39;;;;;;;32.35;14.00;;;6.90;99.90;;;;;;5021428;28;20068;-88
2021/01/29 04:54:11;;;;;;;34.30;13.93;;;7.00;99.90;;;;;;5031661;28;20022;-87
2021/01/29 04:56:54;;;;;;;43.28;14.25;;;7.00;99.90;;;;;;5011912;28;20057;-87
2021/01/29 04:59:26;;;;;;;30.70;13.40;;;7.10;99.90;;;;;;5027525;28;20021;-87
2021/01/29 05:02:29;;;;;;;44.45;15.05;;;7.10;99.90;;;;;;5031929;28;20057;-88
2021/01/29 05:05:07;;;;;;;33.08;13.02;;;7.10;99.90;;;;;;5031435;28;20041;-87
2021/01/29 05:08:08;;;;;;;27.70;11.27;;;7.10;99.90;;;;;;5016685;28;20112;-88
2021/01/29 05:10:50;;;;;;;26.58;10.88;;;7.20;99.90;;;;;;4955838;28;20113;-88
2021/01/29 05:13:40;;;;;;;42.88;13.75;;;7.20;99.90;;;;;;5025838;28;20087;-88
2021/01/29 05:16:35;;;;;;;61.58;16.30;;;7.20;99.90;;;;;;5025165;28;20026;-88
2021/01/29 05:19:25;;;;;;;28.65;12.13;;;7.30;99.90;;;;;;5005967;28;20083;-88
2021/01/29 05:21:57;;;;;;;35.72;12.15;;;7.20;99.90;;;;;;5031514;28;20044;-88
2021/01/29 05:24:28;;;;;;;35.38;13.32;;;7.30;99.90;;;;;;5031612;28;20029;-87
2021/01/29 05:27:09;;;;;;;41.28;13.30;;;7.30;99.90;;;;;;5020732;28;20022;-88
2021/01/29 05:29:56;;;;;;;44.90;15.13;;;7.30;99.90;;;;;;5001921;28;20030;-88
2021/01/29 05:32:46;;;;;;;65.28;19.25;;;7.30;99.90;;;;;;5023344;28;20477;-88
2021/01/29 05:35:50;;;;;;;69.25;18.38;;;7.40;99.90;;;;;;5035629;28;20079;-88
2021/01/29 05:38:59;;;;;;;52.55;16.80;;;7.40;99.90;;;;;;5029595;28;20108;-87
2021/01/29 05:41:46;;;;;;;51.35;15.95;;;7.50;99.90;;;;;;5035459;28;20032;-88
2021/01/29 05:44:45;;;;;;;89.97;21.15;;;7.50;99.90;;;;;;5035805;28;20473;-88
2021/01/29 05:47:48;;;;;;;62.53;18.77;;;7.60;99.90;;;;;;5019744;28;20481;-87
2021/01/29 05:50:34;;;;;;;84.43;20.80;;;7.70;99.90;;;;;;5030232;28;20185;-88
2021/01/29 05:53:03;;;;;;;71.18;19.25;;;7.80;99.90;;;;;;5019951;28;20037;-88
2021/01/29 05:55:45;;;;;;;79.88;22.33;;;7.90;99.90;;;;;;5030179;28;20056;-87
2021/01/29 05:58:29;;;;;;;49.65;17.52;;;7.90;99.90;;;;;;5005450;28;20029;-88
2021/01/29 06:01:21;;;;;;;81.45;21.13;;;8.00;99.90;;;;;;5029264;28;20025;-88
2021/01/29 06:03:49;;;;;;;72.72;18.65;;;8.10;99.90;;;;;;5019411;28;20299;-87
2021/01/29 06:06:44;;;;;;;58.47;16.92;;;8.10;99.90;;;;;;5035265;28;20037;-87
2021/01/29 06:09:46;;;;;;;46.67;14.43;;;8.20;99.90;;;;;;5034837;28;20469;-87
2021/01/29 06:12:18;;;;;;;29.50;11.90;;;8.20;99.90;;;;;;5008432;28;20025;-88
2021/01/29 06:15:28;;;;;;;46.40;14.18;;;8.20;99.90;;;;;;5020487;28;20478;-87
2021/01/29 06:18:05;;;;;;;32.03;11.30;;;8.30;99.90;;;;;;5034289;28;20084;-87
2021/01/29 06:20:53;;;;;;;42.13;13.90;;;8.30;99.90;;;;;;5021040;28;20482;-88
2021/01/29 06:23:28;;;;;;;28.83;11.07;;;8.30;99.90;;;;;;5034494;28;20026;-87
2021/01/29 06:26:24;;;;;;;30.60;10.85;;;8.30;99.90;;;;;;5015440;28;20037;-88
2021/01/29 06:29:20;;;;;;;26.02;10.05;;;8.40;99.90;;;;;;5007765;28;20053;-86
2021/01/29 06:32:07;;;;;;;27.08;9.90;;;8.40;99.90;;;;;;5016082;28;20025;-88
2021/01/29 06:34:53;;;;;;;43.22;12.30;;;8.40;99.90;;;;;;5031551;28;20040;-85
2021/01/29 06:37:49;;;;;;;43.42;12.95;;;8.40;99.90;;;;;;5018781;28;20137;-86
2021/01/29 06:40:52;;;;;;;34.42;12.13;;;8.40;99.90;;;;;;5023364;28;20079;-88
2021/01/29 06:44:09;;;;;;;47.50;15.68;;;8.50;99.90;;;;;;5033967;28;20026;-88
2021/01/29 06:47:00;;;;;;;38.35;14.43;;;8.50;99.90;;;;;;4984625;28;20030;-88
2021/01/29 06:49:32;;;;;;;;;;;8.50;99.90;;;;;;4984105;28;20034;-88
2021/01/29 06:52:06;;;;;;;;;;;8.50;99.90;;;;;;5011554;28;20375;-88
2021/01/29 06:55:07;;;;;;;41.20;14.75;;;8.50;99.90;;;;;;5016317;28;19909;-88
2021/01/29 06:57:53;;;;;;;30.38;12.32;;;8.50;99.90;;;;;;5014605;28;20490;-88
2021/01/29 07:00:38;;;;;;;33.00;12.80;;;8.50;99.90;;;;;;5010214;28;20029;-89
2021/01/29 07:03:32;;;;;;;35.17;12.82;;;8.50;99.90;;;;;;5014451;28;20018;-88
2021/01/29 07:06:13;;;;;;;28.90;11.88;;;8.50;99.90;;;;;;5037298;28;20689;-88
2021/01/29 07:08:45;;;;;;;37.25;13.00;;;8.50;99.90;;;;;;5020762;28;20083;-88
2021/01/29 07:11:57;;;;;;;28.45;11.27;;;8.50;99.90;;;;;;5021018;28;20026;-88
2021/01/29 07:14:43;;;;;;;36.75;11.15;;;8.50;99.90;;;;;;4990358;28;20030;-88
2021/01/29 07:17:18;;;;;;;22.02;9.95;;;8.50;99.90;;;;;;5009384;28;20026;-88
2021/01/29 07:19:59;;;;;;;23.77;9.63;;;8.50;99.90;;;;;;5003417;28;20084;-88
2021/01/29 07:22:49;;;;;;;29.88;10.98;;;8.50;99.90;;;;;;5001584;28;20536;-88
2021/01/29 07:25:18;;;;;;;45.65;14.80;;;8.50;99.90;;;;;;5011719;28;20021;-88
2021/01/29 07:28:17;;;;;;;35.67;12.25;;;8.50;99.90;;;;;;5010874;28;20701;-88
2021/01/29 07:30:58;;;;;;;35.17;12.70;;;8.50;99.90;;;;;;5030580;28;20029;-88
2021/01/29 07:33:45;;;;;;;35.08;13.63;;;8.50;99.90;;;;;;5016401;28;20504;-88
2021/01/29 07:36:48;;;;;;;33.63;13.52;;;8.50;99.90;;;;;;5007931;28;20041;-88
2021/01/29 07:39:32;;;;;;;39.03;13.30;;;8.50;99.90;;;;;;5029984;28;20025;-88
2021/01/29 07:42:16;;;;;;;40.65;13.68;;;8.60;99.90;;;;;;5016295;28;20141;-88
2021/01/29 07:45:00;;;;;;;23.35;9.65;;;8.60;99.90;;;;;;5004539;28;20056;-89
2021/01/29 07:47:47;;;;;;;31.30;11.75;;;8.60;99.90;;;;;;5024657;28;20040;-88
2021/01/29 07:50:46;;;;;;;32.20;10.57;;;8.60;99.90;;;;;;5032640;28;20022;-87
2021/01/29 07:53:12;;;;;;;28.65;10.40;;;8.60;99.90;;;;;;5007324;28;20049;-90
2021/01/29 07:55:57;;;;;;;28.67;10.40;;;8.60;99.90;;;;;;5018234;28;20118;-87
2021/01/29 07:58:46;;;;;;;18.63;8.13;;;8.60;99.90;;;;;;5022594;28;20122;-88
2021/01/29 08:01:25;;;;;;;15.00;6.50;;;8.60;99.90;;;;;;5023333;28;20024;-89
2021/01/29 08:04:11;;;;;;;10.38;5.60;;;8.70;99.90;;;;;;5030565;28;20044;-88
2021/01/29 08:06:49;;;;;;;18.58;7.40;;;8.70;99.90;;;;;;5028963;28;20033;-89
2021/01/29 08:09:35;;;;;;;13.20;6.13;;;8.70;99.90;;;;;;5018036;28;20037;-90
2021/01/29 08:12:07;;;;;;;14.52;6.50;;;8.70;99.90;;;;;;5014537;28;20528;-90
2021/01/29 08:14:52;;;;;;;16.85;7.07;;;8.70;99.90;;;;;;5019928;28;20021;-88
2021/01/29 08:17:36;;;;;;;31.33;13.43;;;8.80;99.90;;;;;;5018104;28;20034;-90
2021/01/29 08:20:20;;;;;;;32.10;13.07;;;8.70;99.90;;;;;;5025770;28;20025;-89
2021/01/29 08:23:07;;;;;;;31.45;14.05;;;8.70;99.90;;;;;;5009184;28;20030;-89
2021/01/29 08:25:59;;;;;;;28.67;14.57;;;8.80;99.90;;;;;;5019630;28;20036;-88
2021/01/29 08:28:39;;;;;;;45.95;19.55;;;8.80;99.90;;;;;;5022092;28;20034;-88
2021/01/29 08:31:20;;;;;;;44.13;16.57;;;8.80;99.90;;;;;;5021915;28;20045;-87
2021/01/29 08:34:06;;;;;;;39.17;15.73;;;8.80;99.90;;;;;;5014883;28;20355;-87
2021/01/29 08:37:06;;;;;;;40.10;14.25;;;8.80;99.90;;;;;;5004888;28;20120;-88
2021/01/29 08:39:58;;;;;;;44.05;15.60;;;8.90;99.90;;;;;;5009261;28;20053;-87
2021/01/29 08:42:29;;;;;;;37.92;12.18;;;8.90;99.90;;;;;;5007458;28;20500;-88
2021/01/29 08:45:32;;;;;;;27.95;10.32;;;8.90;99.90;;;;;;5026195;28;20056;-87
2021/01/29 08:48:22;;;;;;;43.33;13.65;;;8.90;99.90;;;;;;5024189;28;20075;-87
2021/01/29 08:51:07;;;;;;;48.85;14.82;;;8.90;99.90;;;;;;5014563;28;20056;-88
2021/01/29 08:53:55;;;;;;;42.75;13.68;;;8.90;99.90;;;;;;5003398;28;20025;-87
2021/01/29 08:56:39;;;;;;;46.10;13.65;;;8.90;99.90;;;;;;4999709;28;20052;-87
2021/01/29 08:59:15;;;;;;;54.92;14.40;;;8.90;99.90;;;;;;5025161;28;20530;-87
2021/01/29 09:01:56;;;;;;;52.55;15.50;;;8.90;99.90;;;;;;5010328;28;20021;-86
2021/01/29 09:04:49;;;;;;;39.08;10.65;;;8.90;99.90;;;;;;5022390;28;20056;-90
2021/01/29 09:07:21;;;;;;;55.05;14.48;;;8.90;99.90;;;;;;5016653;28;20053;-87
2021/01/29 09:09:49;;;;;;;39.28;10.85;;;8.90;99.90;;;;;;5014266;28;20038;-87
2021/01/29 09:12:28;;;;;;;53.70;13.10;;;8.90;99.90;;;;;;5019330;28;20044;-88
2021/01/29 09:15:04;;;;;;;47.70;12.60;;;8.90;99.90;;;;;;5023844;28;20025;-88
2021/01/29 09:17:49;;;;;;;45.42;12.15;;;8.90;99.90;;;;;;5012959;28;20124;-87
2021/01/29 09:20:25;;;;;;;47.25;10.30;;;8.90;99.90;;;;;;5018260;28;20014;-87
2021/01/29 09:22:53;;;;;;;56.70;11.93;;;8.90;99.90;;;;;;5027303;28;20488;-87
2021/01/29 09:25:31;;;;;;;52.08;9.77;;;8.90;99.90;;;;;;5008448;28;20018;-87
2021/01/29 09:28:12;;;;;;;54.03;10.65;;;8.90;99.90;;;;;;5036591;28;20037;-87
2021/01/29 09:30:58;;;;;;;52.70;10.63;;;8.90;99.90;;;;;;5010008;28;20029;-88
2021/01/29 09:33:27;;;;;;;60.05;11.57;;;8.80;99.90;;;;;;5012202;28;20026;-88
2021/01/29 09:36:15;;;;;;;48.45;9.20;;;8.80;99.90;;;;;;5014721;28;20493;-87
2021/01/29 09:39:09;;;;;;;56.35;8.70;;;8.80;99.90;;;;;;5033500;28;20097;-88
2021/01/29 09:41:55;;;;;;;48.75;8.68;;;8.80;99.90;;;;;;5010424;28;20049;-88
2021/01/29 09:44:36;;;;;;;64.03;8.77;;;8.80;99.90;;;;;;5009716;28;20481;-87
2021/01/29 09:47:04;;;;;;;63.08;8.75;;;8.80;99.90;;;;;;5014593;28;20026;-88
2021/01/29 09:49:36;;;;;;;45.25;7.95;;;8.80;99.90;;;;;;5038842;28;20049;-88
2021/01/29 09:52:10;;;;;;;50.60;7.38;;;8.80;99.90;;;;;;5033287;28;20017;-87
2021/01/29 09:55:18;;;;;;;67.47;9.85;;;8.80;99.90;;;;;;5012936;28;20072;-87
2021/01/29 09:58:11;;;;;;;52.67;7.75;;;8.80;99.90;;;;;;4989424;28;20046;-88
2021/01/29 10:00:40;;;;;;;64.28;7.80;;;8.80;99.90;;;;;;5016724;28;20505;-88
2021/01/29 10:03:30;;;;;;;60.65;8.82;;;8.80;99.90;;;;;;5039391;28;20026;-88
2021/01/29 10:06:19;;;;;;;50.05;6.18;;;8.70;99.90;;;;;;5036925;28;20025;-89
2021/01/29 10:08:56;;;;;;;53.58;7.03;;;8.70;99.90;;;;;;4999920;28;20651;-88
2021/01/29 10:11:31;;;;;;;47.97;7.28;;;8.80;99.90;;;;;;5015614;28;20041;-89
2021/01/29 10:14:21;;;;;;;65.90;8.63;;;8.80;99.90;;;;;;5033700;28;20124;-89
2021/01/29 10:17:09;;;;;;;51.45;6.50;;;8.80;99.90;;;;;;5012846;28;20121;-87
2021/01/29 10:19:49;;;;;;;45.92;5.97;;;8.80;99.90;;;;;;5016657;28;20050;-87
2021/01/29 10:22:43;;;;;;;38.38;5.60;;;8.80;99.90;;;;;;5006062;28;20026;-88
2021/01/29 10:25:23;;;;;;;34.45;6.47;;;8.80;99.90;;;;;;5030977;28;20029;-88
2021/01/29 10:28:16;;;;;;;62.95;7.85;;;8.80;99.90;;;;;;5021981;28;20041;-88
2021/01/29 10:31:03;;;;;;;57.85;7.40;;;8.80;99.90;;;;;;5017880;28;20042;-80
2021/01/29 10:33:32;;;;;;;37.45;5.70;;;8.80;99.90;;;;;;5030651;28;20603;-89
2021/01/29 10:36:01;;;;;;;41.17;6.53;;;8.80;99.90;;;;;;5020640;28;20037;-88
2021/01/29 10:38:47;;;;;;;45.20;6.20;;;8.90;99.90;;;;;;5018356;28;20037;-89
2021/01/29 10:41:25;;;;;;;56.15;7.05;;;8.90;99.90;;;;;;5023287;28;20034;-86
2021/01/29 10:44:07;;;;;;;55.28;7.65;;;8.90;99.90;;;;;;5015539;28;20026;-89
2021/01/29 10:46:35;;;;;;;46.42;6.50;;;8.90;99.90;;;;;;5008348;28;20083;-90
2021/01/29 10:49:21;;;;;;;46.33;6.70;;;9.00;99.90;;;;;;5029586;28;20037;-89
2021/01/29 10:52:03;;;;;;;42.13;6.30;;;9.00;99.90;;;;;;5013157;28;20112;-89
2021/01/29 10:54:38;;;;;;;48.47;6.78;;;9.00;99.90;;;;;;4997761;28;20021;-89
2021/01/29 10:57:26;;;;;;;43.13;5.63;;;9.10;99.90;;;;;;4997736;28;20077;-90
2021/01/29 10:59:57;;;;;;;44.80;7.47;;;9.10;99.90;;;;;;5020357;28;20658;-89
2021/01/29 11:02:40;;;;;;;62.80;8.00;;;9.10;99.90;;;;;;5020970;28;20109;-89
2021/01/29 11:05:09;;;;;;;47.08;6.90;;;9.10;99.90;;;;;;5010711;28;20021;-89
2021/01/29 11:07:40;;;;;;;39.83;6.03;;;9.10;99.90;;;;;;5035488;28;20025;-90
2021/01/29 11:10:11;;;;;;;50.22;7.10;;;9.20;99.90;;;;;;5035404;28;20082;-90
2021/01/29 11:12:44;;;;;;;56.38;9.13;;;9.20;99.90;;;;;;5022337;28;20060;-89
2021/01/29 11:15:28;;;;;;;59.72;9.15;;;9.20;99.90;;;;;;5005816;28;20017;-89
2021/01/29 11:18:04;;;;;;;48.33;7.20;;;9.20;99.90;;;;;;5015386;28;20034;-89
2021/01/29 11:20:34;;;;;;;51.70;6.68;;;9.30;99.90;;;;;;5009126;28;20107;-90
2021/01/29 11:23:11;;;;;;;41.50;6.75;;;9.30;99.90;;;;;;5017662;28;20026;-89
2021/01/29 11:25:53;;;;;;;50.22;6.57;;;9.30;99.90;;;;;;5031316;28;20105;-91
2021/01/29 11:28:44;;;;;;;54.50;7.45;;;9.30;99.90;;;;;;5001274;28;20025;-88
2021/01/29 11:31:15;;;;;;;46.40;6.57;;;9.30;99.90;;;;;;5021358;28;20486;-88
2021/01/29 11:33:44;;;;;;;39.67;7.20;;;9.30;99.90;;;;;;5008149;28;20164;-89
2021/01/29 11:36:44;;;;;;;44.15;7.00;;;9.40;99.90;;;;;;5009196;28;20029;-89
2021/01/29 11:39:35;;;;;;;41.20;7.35;;;9.40;99.90;;;;;;5010973;28;20021;-89
2021/01/29 11:42:21;;;;;;;55.30;7.70;;;9.40;99.90;;;;;;5014761;28;20022;-89
2021/01/29 11:45:28;;;;;;;42.97;7.10;;;9.40;99.90;;;;;;5031471;28;20343;-88
2021/01/29 11:47:58;;;;;;;56.63;7.65;;;9.40;99.90;;;;;;5021988;28;20034;-88
2021/01/29 11:50:41;;;;;;;42.88;7.10;;;9.40;99.90;;;;;;5010563;28;20026;-88
2021/01/29 11:53:25;;;;;;;33.97;6.30;;;9.40;99.90;;;;;;5025215;28;20045;-89
2021/01/29 11:56:20;;;;;;;30.15;4.45;;;9.40;99.90;;;;;;5033638;28;20121;-88
2021/01/29 11:58:49;;;;;;;36.58;6.95;;;9.40;99.90;;;;;;4990614;28;20367;-89
2021/01/29 12:01:53;;;;;;;41.45;7.10;;;9.40;99.90;;;;;;5013298;28;20022;-89
2021/01/29 12:04:29;;;;;;;33.50;6.32;;;9.40;99.90;;;;;;5018652;28;20048;-87
2021/01/29 12:07:09;;;;;;;34.30;5.30;;;9.50;99.90;;;;;;5056557;28;20163;-87
2021/01/29 12:09:53;;;;;;;35.97;5.13;;;9.50;99.90;;;;;;5055806;28;20064;-86
2021/01/29 12:12:26;;;;;;;44.05;6.05;;;9.50;99.90;;;;;;5017544;28;20052;-89
2021/01/29 12:14:59;;;;;;;38.42;6.28;;;9.50;99.90;;;;;;5043607;28;20033;-89
2021/01/29 12:17:27;;;;;;;37.90;5.88;;;9.50;99.90;;;;;;5032590;28;20029;-89
2021/01/29 12:20:05;;;;;;;43.13;5.28;;;9.50;99.90;;;;;;5019441;28;20065;-88
2021/01/29 12:22:48;;;;;;;27.13;4.35;;;9.50;99.90;;;;;;5004131;28;20064;-88
2021/01/29 12:25:55;;;;;;;48.70;6.03;;;9.50;99.90;;;;;;5017063;28;20022;-89
2021/01/29 12:28:39;;;;;;;41.80;6.30;;;9.50;99.90;;;;;;5016088;28;20844;-89
2021/01/29 12:31:17;;;;;;;37.83;6.57;;;9.50;99.90;;;;;;5013923;28;20060;-88
2021/01/29 12:34:01;;;;;;;23.63;5.35;;;9.50;99.90;;;;;;5021401;28;20021;-88
2021/01/29 12:36:28;;;;;;;28.30;5.20;;;9.50;99.90;;;;;;5014144;28;20057;-89
2021/01/29 12:39:00;;;;;;;39.33;5.80;;;9.60;99.90;;;;;;5008735;28;20060;-90
2021/01/29 12:41:48;;;;;;;40.17;7.22;;;9.60;99.90;;;;;;5029182;28;20025;-89
2021/01/29 12:44:35;;;;;;;29.58;5.75;;;9.60;99.90;;;;;;5005776;28;20025;-91
2021/01/29 12:47:35;;;;;;;30.58;6.07;;;9.60;99.90;;;;;;5010222;28;20052;-90
2021/01/29 12:50:25;;;;;;;30.35;5.75;;;9.60;99.90;;;;;;5007848;28;20024;-89
2021/01/29 12:52:55;;;;;;;35.65;6.75;;;9.60;99.90;;;;;;5008555;28;20113;-89
2021/01/29 12:55:34;;;;;;;37.30;7.30;;;9.60;99.90;;;;;;5007703;28;20453;-91
2021/01/29 12:58:06;;;;;;;36.92;7.05;;;9.70;99.90;;;;;;5018698;28;20029;-90
2021/01/29 13:00:38;;;;;;;40.75;9.90;;;9.70;99.90;;;;;;5010941;28;20033;-90
2021/01/29 13:03:25;;;;;;;30.23;5.10;;;9.70;99.90;;;;;;5028075;28;20117;-89
2021/01/29 13:06:27;;;;;;;24.33;5.45;;;9.70;99.90;;;;;;5025140;28;20080;-89
2021/01/29 13:09:26;;;;;;;33.08;5.72;;;9.80;99.90;;;;;;5008344;28;20149;-89
2021/01/29 13:12:06;;;;;;;30.88;5.93;;;9.80;99.90;;;;;;5016525;28;20140;-91
2021/01/29 13:15:01;;;;;;;34.50;6.30;;;9.80;99.90;;;;;;5018630;28;20018;-90
2021/01/29 13:17:43;;;;;;;22.13;4.72;;;9.80;99.90;;;;;;5007683;28;20030;-91
2021/01/29 13:20:20;;;;;;;29.35;5.43;;;9.80;99.90;;;;;;5016981;28;20026;-90
2021/01/29 13:22:48;;;;;;;40.97;6.65;;;9.80;99.90;;;;;;5009748;28;20026;-90
2021/01/29 13:25:25;;;;;;;50.75;7.43;;;9.80;99.90;;;;;;5000557;28;20463;-91
2021/01/29 13:28:14;;;;;;;24.88;5.78;;;9.80;99.90;;;;;;5019454;28;20040;-90
2021/01/29 13:30:42;;;;;;;37.13;7.00;;;9.80;99.90;;;;;;5006857;28;20022;-90
2021/01/29 13:33:15;;;;;;;29.30;6.22;;;9.80;99.90;;;;;;5020207;28;20057;-89
2021/01/29 13:35:42;;;;;;;32.47;6.43;;;9.90;99.90;;;;;;5019991;28;20026;-89
2021/01/29 13:38:36;;;;;;;35.00;7.57;;;9.80;99.90;;;;;;5004582;28;20034;-89
2021/01/29 13:41:11;;;;;;;37.45;7.70;;;9.80;99.90;;;;;;5002840;28;20485;-89
2021/01/29 13:43:37;;;;;;;27.38;5.57;;;9.80;99.90;;;;;;5018675;28;20030;-89
2021/01/29 13:46:08;;;;;;;30.48;4.60;;;9.80;99.90;;;;;;5004894;28;20037;-91